Time,TemperatureF,DewpointF,PressureIn,WindDirection,WindDirectionDegrees,WindSpeedMPH,WindSpeedGustMPH,Humidity,HourlyPrecipIn,Conditions,Clouds,dailyrainin,SoftwareType,DateUTC
2013-07-15 00:02:00,56.0,46.0,30.33,NNW,330,2.0,3.0,68,0.00,,,0.01,,2013-07-15 06:02:00,
2013-07-15 00:11:00,57.0,46.0,30.34,NNW,334,2.0,3.0,67,0.00,,,0.01,,2013-07-15 06:11:00,
2013-07-15 00:22:00,57.0,46.0,30.34,North,354,3.0,3.0,66,0.00,,,0.01,,2013-07-15 06:22:00,
2013-07-15 00:32:00,57.0,46.0,30.34,North,356,2.0,5.0,66,0.00,,,0.01,,2013-07-15 06:32:00,
2013-07-15 00:42:00,57.0,46.0,30.33,NNW,336,3.0,3.0,66,0.00,,,0.01,,2013-07-15 06:42:00,
2013-07-15 00:53:00,57.0,46.0,30.34,NW,326,3.0,5.0,66,0.00,,,0.01,,2013-07-15 06:53:00,
2013-07-15 01:01:00,57.0,46.0,30.34,North,351,0.0,0.0,66,0.00,,,0.01,,2013-07-15 07:01:00,
2013-07-15 01:11:00,57.0,46.0,30.34,North,351,0.0,0.0,66,0.00,,,0.01,,2013-07-15 07:11:00,
2013-07-15 01:21:00,56.0,45.0,30.35,North,351,0.0,0.0,67,0.00,,,0.01,,2013-07-15 07:21:00,
2013-07-15 01:32:00,57.0,46.0,30.34,North,352,0.0,0.0,66,0.00,,,0.01,,2013-07-15 07:32:00,
2013-07-15 01:43:00,56.0,46.0,30.34,North,349,0.0,0.0,68,0.00,,,0.01,,2013-07-15 07:43:00,
2013-07-15 01:53:00,56.0,46.0,30.35,NNW,339,0.0,0.0,69,0.00,,,0.01,,2013-07-15 07:53:00,
2013-07-15 02:01:00,56.0,46.0,30.35,WNW,301,0.0,5.0,69,0.00,,,0.01,,2013-07-15 08:01:00,
2013-07-15 02:11:00,55.0,46.0,30.35,SSE,160,2.0,3.0,71,0.00,,,0.01,,2013-07-15 08:11:00,
2013-07-15 02:22:00,55.0,47.0,30.35,SSE,160,0.0,0.0,73,0.00,,,0.01,,2013-07-15 08:22:00,
2013-07-15 02:32:00,55.0,47.0,30.35,SSE,160,0.0,0.0,74,0.00,,,0.01,,2013-07-15 08:32:00,
2013-07-15 02:43:00,55.0,48.0,30.35,SSE,160,0.0,0.0,76,0.00,,,0.01,,2013-07-15 08:43:00,
2013-07-15 02:53:00,55.0,48.0,30.35,SSE,160,0.0,0.0,76,0.00,,,0.01,,2013-07-15 08:53:00,
2013-07-15 03:01:00,56.0,49.0,30.34,SSE,160,0.0,0.0,77,0.00,,,0.01,,2013-07-15 09:01:00,
2013-07-15 03:11:00,56.0,49.0,30.35,SSE,160,0.0,0.0,77,0.00,,,0.01,,2013-07-15 09:11:00,
2013-07-15 03:22:00,56.0,49.0,30.34,SSE,160,0.0,0.0,78,0.00,,,0.01,,2013-07-15 09:22:00,
2013-07-15 03:32:00,56.0,49.0,30.34,SSE,160,0.0,0.0,78,0.00,,,0.01,,2013-07-15 09:32:00,
2013-07-15 03:42:00,56.0,48.0,30.34,NNE,12,3.0,3.0,75,0.00,,,0.01,,2013-07-15 09:42:00,
2013-07-15 03:52:00,55.0,48.0,30.34,NNE,13,0.0,0.0,76,0.00,,,0.01,,2013-07-15 09:52:00,
2013-07-15 04:02:00,55.0,48.0,30.33,North,357,3.0,6.0,77,0.00,,,0.01,,2013-07-15 10:02:00,
2013-07-15 04:11:00,54.0,47.0,30.33,North,0,0.0,0.0,78,0.00,,,0.01,,2013-07-15 10:11:00,
2013-07-15 04:21:00,54.0,47.0,30.33,North,354,0.0,1.0,78,0.00,,,0.01,,2013-07-15 10:21:00,
2013-07-15 04:32:00,54.0,47.0,30.32,North,0,0.0,0.0,78,0.00,,,0.01,,2013-07-15 10:32:00,
2013-07-15 04:42:00,54.0,48.0,30.32,North,0,0.0,0.0,79,0.00,,,0.01,,2013-07-15 10:42:00,
2013-07-15 04:52:00,55.0,48.0,30.32,North,351,0.0,1.0,78,0.00,,,0.01,,2013-07-15 10:52:00,
2013-07-15 05:01:00,54.0,48.0,30.32,North,353,0.0,0.0,79,0.00,,,0.01,,2013-07-15 11:01:00,
2013-07-15 05:11:00,54.0,48.0,30.32,North,352,0.0,0.0,80,0.00,,,0.01,,2013-07-15 11:11:00,
2013-07-15 05:22:00,53.0,48.0,30.32,North,357,0.0,0.0,82,0.00,,,0.01,,2013-07-15 11:22:00,
2013-07-15 05:32:00,53.0,48.0,30.32,North,0,0.0,0.0,82,0.00,,,0.01,,2013-07-15 11:32:00,
2013-07-15 05:42:00,53.0,48.0,30.32,North,0,1.0,1.0,82,0.00,,,0.01,,2013-07-15 11:42:00,
2013-07-15 05:52:00,53.0,48.0,30.32,North,0,0.0,0.0,82,0.00,,,0.01,,2013-07-15 11:52:00,
2013-07-15 06:01:00,52.0,47.0,30.32,North,0,1.0,2.0,83,0.00,,,0.01,,2013-07-15 12:01:00,
2013-07-15 06:11:00,53.0,48.0,30.32,North,0,2.0,2.0,83,0.00,,,0.01,,2013-07-15 12:11:00,
2013-07-15 06:22:00,53.0,48.0,30.32,North,355,3.0,5.0,82,0.00,,,0.01,,2013-07-15 12:22:00,
2013-07-15 06:32:00,53.0,48.0,30.32,North,355,0.0,0.0,82,0.00,,,0.01,,2013-07-15 12:32:00,
2013-07-15 06:42:00,53.0,47.0,30.32,North,358,3.0,5.0,81,0.00,,,0.01,,2013-07-15 12:42:00,
2013-07-15 06:52:00,53.0,47.0,30.32,North,355,6.0,7.0,80,0.00,,,0.01,,2013-07-15 12:52:00,
2013-07-15 07:01:00,55.0,47.0,30.32,NNE,20,3.0,6.0,73,0.00,,,0.01,,2013-07-15 13:01:00,
2013-07-15 07:11:00,57.0,47.0,30.32,NNE,12,3.0,3.0,70,0.00,,,0.01,,2013-07-15 13:11:00,
2013-07-15 07:33:00,60.0,48.0,30.33,NNE,22,2.0,3.0,64,0.00,,,0.01,,2013-07-15 13:33:00,
2013-07-15 07:43:00,61.0,48.0,30.33,NNE,28,5.0,6.0,63,0.00,,,0.01,,2013-07-15 13:43:00,
2013-07-15 07:53:00,61.0,48.0,30.33,NNE,28,1.0,7.0,62,0.00,,,0.01,,2013-07-15 13:53:00,
2013-07-15 08:33:00,63.0,49.0,30.32,NNE,21,5.0,6.0,60,0.00,,,0.00,,2013-07-15 14:33:00,
2013-07-15 08:42:00,64.0,49.0,30.32,North,9,5.0,7.0,59,0.00,,,0.00,,2013-07-15 14:42:00,
2013-07-15 08:55:00,65.0,50.0,30.32,NNE,18,1.0,0.0,59,0.00,,,0.00,,2013-07-15 14:55:00,
2013-07-15 09:36:00,69.0,50.0,30.32,North,0,0.0,0.0,50,0.00,,,0.00,,2013-07-15 15:36:00,
2013-07-15 13:05:00,76.0,48.0,30.29,WNW,284,5.0,6.0,37,0.00,,,0.00,,2013-07-15 19:05:00,
2013-07-15 14:25:00,76.0,50.0,30.29,SSE,151,10.0,18.0,40,0.00,,,0.00,,2013-07-15 20:25:00,
2013-07-15 14:35:00,72.0,51.0,30.30,South,173,6.0,10.0,48,0.00,,,0.00,,2013-07-15 20:35:00,
2013-07-15 14:43:00,69.0,54.0,30.30,South,188,2.0,6.0,58,0.02,,,0.02,,2013-07-15 20:43:00,
2013-07-15 14:54:00,66.0,54.0,30.30,WSW,248,0.0,0.0,65,0.04,,,0.04,,2013-07-15 20:54:00,
2013-07-15 15:02:00,62.0,53.0,30.30,WNW,295,2.0,3.0,72,0.04,,,0.04,,2013-07-15 21:02:00,
2013-07-15 15:12:00,62.0,52.0,30.30,SSW,204,0.0,1.0,71,0.04,,,0.04,,2013-07-15 21:12:00,
2013-07-15 15:23:00,61.0,53.0,30.29,NW,304,0.0,0.0,76,0.04,,,0.04,,2013-07-15 21:23:00,
2013-07-15 15:54:00,60.0,52.0,30.30,North,0,0.0,0.0,76,0.01,,,0.05,,2013-07-15 21:54:00,
2013-07-15 16:02:00,60.0,53.0,30.30,North,0,0.0,0.0,77,0.01,,,0.05,,2013-07-15 22:02:00,
2013-07-15 16:15:00,59.0,53.0,30.30,North,359,1.0,3.0,80,0.01,,,0.05,,2013-07-15 22:15:00,
2013-07-15 16:22:00,60.0,53.0,30.30,North,354,0.0,0.0,79,0.01,,,0.05,,2013-07-15 22:22:00,
2013-07-15 16:34:00,60.0,51.0,30.30,WNW,290,0.0,0.0,73,0.01,,,0.05,,2013-07-15 22:34:00,
2013-07-15 16:43:00,61.0,51.0,30.30,WNW,287,0.0,2.0,70,0.01,,,0.05,,2013-07-15 22:43:00,
2013-07-15 16:54:00,61.0,51.0,30.29,WNW,287,0.0,0.0,70,0.00,,,0.05,,2013-07-15 22:54:00,
2013-07-15 17:04:00,61.0,52.0,30.30,WNW,287,0.0,1.0,71,0.00,,,0.05,,2013-07-15 23:04:00,
2013-07-15 17:13:00,60.0,52.0,30.30,NE,53,1.0,3.0,74,0.00,,,0.05,,2013-07-15 23:13:00,
2013-07-15 17:35:00,58.0,52.0,30.30,NE,56,0.0,0.0,80,0.04,,,0.09,,2013-07-15 23:35:00,
2013-07-15 17:53:00,58.0,52.0,30.31,NE,56,0.0,1.0,81,0.05,,,0.10,,2013-07-15 23:53:00,
2013-07-15 18:03:00,57.0,52.0,30.31,NE,56,0.0,0.0,83,0.05,,,0.10,,2013-07-16 00:03:00,
2013-07-15 18:25:00,57.0,52.0,30.31,NE,56,0.0,0.0,83,0.03,,,0.11,,2013-07-16 00:25:00,
2013-07-15 18:33:00,57.0,53.0,30.30,NE,56,0.0,0.0,85,0.03,,,0.12,,2013-07-16 00:33:00,
2013-07-15 18:45:00,56.0,51.0,30.31,NE,56,0.0,0.0,84,0.04,,,0.14,,2013-07-16 00:45:00,
2013-07-15 18:52:00,56.0,52.0,30.30,NE,56,0.0,0.0,86,0.05,,,0.15,,2013-07-16 00:52:00,
2013-07-15 19:13:00,56.0,52.0,30.30,NE,56,0.0,0.0,87,0.06,,,0.17,,2013-07-16 01:13:00,
2013-07-15 19:25:00,56.0,52.0,30.30,NE,56,0.0,0.0,86,0.07,,,0.18,,2013-07-16 01:25:00,
2013-07-15 19:34:00,55.0,51.0,30.30,NE,56,0.0,0.0,87,0.06,,,0.18,,2013-07-16 01:34:00,
2013-07-15 19:55:00,55.0,52.0,30.29,NE,56,0.0,0.0,88,0.03,,,0.18,,2013-07-16 01:55:00,
2013-07-15 20:02:00,55.0,52.0,30.29,NE,56,0.0,0.0,89,0.02,,,0.18,,2013-07-16 02:02:00,
2013-07-15 20:11:00,55.0,52.0,30.29,NE,56,0.0,0.0,90,0.01,,,0.18,,2013-07-16 02:11:00,
2013-07-15 20:25:00,54.0,51.0,30.30,NE,56,0.0,0.0,88,0.00,,,0.18,,2013-07-16 02:25:00,
2013-07-15 20:35:00,54.0,51.0,30.30,NE,56,0.0,0.0,89,0.00,,,0.18,,2013-07-16 02:35:00,
2013-07-15 20:54:00,54.0,51.0,30.31,NE,56,0.0,0.0,90,0.00,,,0.18,,2013-07-16 02:54:00,
2013-07-15 21:05:00,54.0,51.0,30.31,NE,56,0.0,0.0,91,0.00,,,0.18,,2013-07-16 03:05:00,
2013-07-15 21:13:00,54.0,51.0,30.31,NE,56,0.0,0.0,91,0.00,,,0.18,,2013-07-16 03:13:00,
2013-07-15 21:46:00,53.0,50.0,30.32,NE,48,0.0,5.0,91,0.00,,,0.18,,2013-07-16 03:46:00,
2013-07-15 21:55:00,53.0,50.0,30.32,NNW,345,3.0,3.0,91,0.00,,,0.18,,2013-07-16 03:55:00,
2013-07-15 22:01:00,53.0,50.0,30.33,NNW,332,0.0,0.0,91,0.01,,,0.19,,2013-07-16 04:01:00,
2013-07-15 22:12:00,53.0,50.0,30.33,NNW,339,0.0,0.0,91,0.02,,,0.20,,2013-07-16 04:12:00,
2013-07-15 22:22:00,53.0,51.0,30.34,NNW,341,2.0,3.0,92,0.04,,,0.22,,2013-07-16 04:22:00,
2013-07-15 22:32:00,53.0,51.0,30.34,NNW,341,2.0,3.0,92,0.06,,,0.24,,2013-07-16 04:32:00,
2013-07-15 22:43:00,53.0,51.0,30.34,NNW,341,0.0,0.0,92,0.06,,,0.24,,2013-07-16 04:43:00,
2013-07-15 22:53:00,53.0,51.0,30.34,NNW,341,0.0,2.0,92,0.07,,,0.25,,2013-07-16 04:53:00,
2013-07-15 23:01:00,53.0,51.0,30.33,NNW,341,0.0,0.0,92,0.06,,,0.25,,2013-07-16 05:01:00,
2013-07-15 23:11:00,52.0,50.0,30.33,NNW,340,0.0,0.0,92,0.06,,,0.26,,2013-07-16 05:11:00,
2013-07-15 23:22:00,52.0,50.0,30.32,NNW,341,0.0,0.0,92,0.04,,,0.26,,2013-07-16 05:22:00,
2013-07-15 23:32:00,52.0,50.0,30.33,NNW,337,3.0,3.0,92,0.02,,,0.26,,2013-07-16 05:32:00,
2013-07-15 23:43:00,52.0,50.0,30.33,North,358,0.0,0.0,92,0.02,,,0.26,,2013-07-16 05:43:00,
2013-07-15 23:52:00,52.0,50.0,30.33,North,10,0.0,0.0,92,0.01,,,0.26,,2013-07-16 05:52:00,